Main page
METAR-TAF:

Airports :

Longyearbyen, Longyear,

Svalbard Airport

latitude: Norway, longitude: 78-15N, elevation: 015-28E m

Current weather observation

The report was made 33 minutes ago, at 16:20 UTC
Wind 8 kt from the West
Temperature 9°C
Humidity 81%
Pressure 1018 hPa
Visibility 10 km or more
Few clouds at a height of 500 ft
Scattered clouds at a height of 2300 ft
Broken clouds at a height of 2500 ft

METAR: ENSB 231620Z 26008KT 9999 FEW005 SCT023 BKN025 09/06 Q1018 RMK WIND 1400FT 24005KT

Time: 16:53 (16:53 UTC)

Forecast

Forecast valid from 23 at 12 UTC to 24 at 12 UTC
Wind 8 kt from the West/Southwest
Visibility 10 km or more
Few clouds at a height of 800 ft
Broken clouds at a height of 2000 ft
Probability 40% :
Temporary
from 23 at 20 UTC to 24 at 12 UTC
Broken clouds at a height of 800 ft

TAF: ENSB 2312/2412 25008KT 9999 FEW008 BKN020 PROB40 TEMPO 2320/2412 BKN008

METAR-TAF

Weather observations and forecasts of more than 4000 airports (METAR and TAF reports).

The available stations are represented by yellow and red dots on the map.

Hover mouse over dot to see the name of the station.

Then click to see weather observations and forecasts.

To change the map : click on the green buttons with a black cross to zoom in, on the green button with a dash to zoom out, or on the green arrows for adjacent maps.


METAR-TAF: